Time;durP1;ratioP1;P1;durP2;ratioP2;P2;SDS_P1;SDS_P2;PMS_P1;PMS_P2;Temp;Humidity;BMP_temperature;BMP_pressure;BME280_temperature;BME280_humidity;BME280_pressure;Samples;Min_cycle;Max_cycle;Signal;HPM_P1;HPM_P2
2022/07/10 00:00:37;;;;;;;3.45;2.88;;;;;;;;;;5020893;28;20422;-74
2022/07/10 00:03:04;;;;;;;2.83;2.42;;;;;;;;;;5028063;28;20132;-75
2022/07/10 00:05:30;;;;;;;3.85;2.85;;;;;;;;;;5025629;28;20744;-73
2022/07/10 00:07:57;;;;;;;8.10;3.20;;;;;;;;;;5026562;28;20036;-75
2022/07/10 00:10:24;;;;;;;3.35;3.05;;;;;;;;;;5028389;28;20026;-73
2022/07/10 00:12:51;;;;;;;3.28;2.80;;;;;;;;;;5025746;28;20098;-74
2022/07/10 00:15:17;;;;;;;2.67;2.45;;;;;;;;;;5020538;28;20021;-74
2022/07/10 00:17:44;;;;;;;3.70;2.70;;;;;;;;;;5022147;28;20494;-74
2022/07/10 00:20:11;;;;;;;3.70;3.20;;;;;;;;;;5021759;28;20029;-73
2022/07/10 00:22:38;;;;;;;2.63;2.42;;;;;;;;;;5030032;28;20021;-74
2022/07/10 00:25:04;;;;;;;2.90;2.60;;;;;;;;;;5024768;28;20030;-73
2022/07/10 00:27:31;;;;;;;3.00;2.70;;;;;;;;;;5015095;28;20390;-73
2022/07/10 00:29:57;;;;;;;3.20;2.90;;;;;;;;;;5023096;28;20024;-74
2022/07/10 00:32:23;;;;;;;4.25;3.05;;;;;;;;;;5021412;28;20474;-74
2022/07/10 00:34:49;;;;;;;4.15;2.83;;;;;;;;;;5030588;28;20020;-74
2022/07/10 00:37:15;;;;;;;3.95;3.30;;;;;;;;;;5029548;28;20041;-73
2022/07/10 00:39:41;;;;;;;3.45;2.65;;;;;;;;;;5028073;28;20493;-74
2022/07/10 00:42:13;;;;;;;4.97;3.00;;;;;;;;;;5023001;28;20041;-74
2022/07/10 00:44:39;;;;;;;3.35;2.92;;;;;;;;;;5030014;28;20087;-73
2022/07/10 00:47:05;;;;;;;3.90;3.28;;;;;;;;;;5017453;28;20032;-74
2022/07/10 00:49:32;;;;;;;5.03;3.15;;;;;;;;;;5019473;28;20034;-73
2022/07/10 00:52:00;;;;;;;3.72;2.70;;;;;;;;;;5017144;28;20037;-73
2022/07/10 00:54:26;;;;;;;2.92;2.63;;;;;;;;;;5016743;28;20409;-74
2022/07/10 00:56:53;;;;;;;3.45;2.80;;;;;;;;;;5017554;28;20148;-74
2022/07/10 00:59:19;;;;;;;3.55;3.08;;;;;;;;;;5012940;28;20074;-75
2022/07/10 01:01:45;;;;;;;4.00;3.38;;;;;;;;;;5017499;28;20172;-74
2022/07/10 01:04:11;;;;;;;3.10;2.80;;;;;;;;;;5015402;28;20033;-73
2022/07/10 01:06:37;;;;;;;4.10;2.92;;;;;;;;;;5016249;28;20029;-74
2022/07/10 01:09:03;;;;;;;4.25;2.97;;;;;;;;;;5016622;28;20128;-74
2022/07/10 01:11:30;;;;;;;3.95;3.35;;;;;;;;;;5022538;28;20021;-73
2022/07/10 01:13:56;;;;;;;3.20;2.85;;;;;;;;;;5024300;28;20402;-74
2022/07/10 01:16:23;;;;;;;3.58;3.00;;;;;;;;;;5028111;28;20025;-73
2022/07/10 01:18:49;;;;;;;3.15;2.80;;;;;;;;;;5025616;28;20167;-74
2022/07/10 01:21:25;;;;;;;3.95;3.00;;;;;;;;;;5030725;28;20104;-75
2022/07/10 01:23:52;;;;;;;3.45;3.10;;;;;;;;;;5024256;28;20018;-76
2022/07/10 01:26:20;;;;;;;3.88;3.15;;;;;;;;;;5033439;28;20660;-74
2022/07/10 01:28:46;;;;;;;4.47;3.40;;;;;;;;;;5027648;28;20017;-74
2022/07/10 01:31:12;;;;;;;4.93;3.63;;;;;;;;;;5027768;28;20026;-73
2022/07/10 01:33:39;;;;;;;4.70;3.45;;;;;;;;;;5026814;28;20102;-74
2022/07/10 01:36:05;;;;;;;4.45;3.65;;;;;;;;;;5023541;28;20557;-73
2022/07/10 01:38:31;;;;;;;4.15;3.05;;;;;;;;;;5028280;28;20025;-73
2022/07/10 01:40:57;;;;;;;3.72;3.38;;;;;;;;;;5025611;28;20517;-73
2022/07/10 01:43:23;;;;;;;4.57;3.20;;;;;;;;;;5013234;28;20061;-74
2022/07/10 01:45:49;;;;;;;3.63;3.08;;;;;;;;;;5016403;28;20113;-73
2022/07/10 01:48:15;;;;;;;4.07;3.58;;;;;;;;;;5021792;28;20402;-73
2022/07/10 01:50:41;;;;;;;3.70;3.17;;;;;;;;;;5020976;28;20025;-75
2022/07/10 01:53:07;;;;;;;3.58;3.10;;;;;;;;;;5015721;28;20319;-73
2022/07/10 01:55:33;;;;;;;4.75;3.53;;;;;;;;;;5023578;28;20065;-73
2022/07/10 01:57:59;;;;;;;4.15;3.55;;;;;;;;;;5037871;28;20057;-73
2022/07/10 02:00:26;;;;;;;3.92;3.15;;;;;;;;;;5024993;28;20033;-75
2022/07/10 02:05:37;;;;;;;4.05;3.28;;;;;;;;;;5029075;28;20107;-74
2022/07/10 02:08:05;;;;;;;4.03;3.10;;;;;;;;;;5026205;28;20456;-74
2022/07/10 02:10:32;;;;;;;5.65;3.47;;;;;;;;;;5024620;28;20474;-74
2022/07/10 02:12:58;;;;;;;4.07;3.17;;;;;;;;;;5030056;28;20021;-74
2022/07/10 02:15:24;;;;;;;3.67;2.88;;;;;;;;;;5027871;28;20111;-74
2022/07/10 02:17:50;;;;;;;4.78;3.60;;;;;;;;;;5027674;28;20461;-73
2022/07/10 02:20:16;;;;;;;4.30;3.38;;;;;;;;;;5026547;28;20767;-74
2022/07/10 02:22:42;;;;;;;3.95;3.53;;;;;;;;;;5027701;28;20026;-73
2022/07/10 02:25:09;;;;;;;3.88;3.45;;;;;;;;;;5021932;28;20037;-74
2022/07/10 02:27:35;;;;;;;3.80;3.40;;;;;;;;;;5032582;28;20029;-75
2022/07/10 02:30:01;;;;;;;3.97;3.20;;;;;;;;;;5028831;28;20064;-73
2022/07/10 02:32:27;;;;;;;4.15;2.95;;;;;;;;;;5021288;28;20034;-73
2022/07/10 02:34:53;;;;;;;4.03;3.30;;;;;;;;;;5020296;28;20510;-72
2022/07/10 02:37:19;;;;;;;5.22;3.70;;;;;;;;;;5041922;28;20029;-73
2022/07/10 02:39:45;;;;;;;5.38;3.35;;;;;;;;;;5027538;28;20056;-74
2022/07/10 02:42:11;;;;;;;3.88;3.10;;;;;;;;;;5025359;28;20113;-74
2022/07/10 02:44:37;;;;;;;4.57;3.38;;;;;;;;;;5021426;28;20109;-74
2022/07/10 02:47:04;;;;;;;4.30;3.22;;;;;;;;;;5027401;28;20036;-74
2022/07/10 02:49:30;;;;;;;5.28;3.40;;;;;;;;;;5023988;28;20438;-74
2022/07/10 02:51:56;;;;;;;4.72;3.55;;;;;;;;;;5025211;28;20053;-74
2022/07/10 02:54:22;;;;;;;4.95;3.80;;;;;;;;;;5027420;28;20025;-75
2022/07/10 02:56:48;;;;;;;3.97;3.20;;;;;;;;;;5026260;28;20544;-74
2022/07/10 02:59:14;;;;;;;4.47;3.50;;;;;;;;;;5024519;28;20029;-73
2022/07/10 03:01:40;;;;;;;4.93;4.00;;;;;;;;;;5027928;28;20100;-74
2022/07/10 03:04:07;;;;;;;3.95;3.55;;;;;;;;;;5026149;28;20022;-74
2022/07/10 03:06:33;;;;;;;4.78;3.50;;;;;;;;;;5030372;28;20527;-74
2022/07/10 03:08:59;;;;;;;4.53;3.40;;;;;;;;;;5030800;28;20098;-75
2022/07/10 03:11:25;;;;;;;4.30;3.40;;;;;;;;;;5028920;28;20022;-75
2022/07/10 03:13:51;;;;;;;13.45;4.00;;;;;;;;;;5029668;28;20064;-74
2022/07/10 03:16:17;;;;;;;4.28;3.72;;;;;;;;;;5032799;28;20037;-73
2022/07/10 03:18:43;;;;;;;6.13;3.83;;;;;;;;;;5033721;28;20033;-74
2022/07/10 03:21:09;;;;;;;4.40;3.30;;;;;;;;;;5025840;28;20060;-74
2022/07/10 03:23:35;;;;;;;4.68;3.70;;;;;;;;;;5029392;28;20044;-74
2022/07/10 03:26:01;;;;;;;4.40;3.67;;;;;;;;;;5023463;28;20495;-74
2022/07/10 03:28:27;;;;;;;6.43;3.35;;;;;;;;;;5026601;28;20080;-73
2022/07/10 03:30:53;;;;;;;3.83;3.30;;;;;;;;;;5026311;28;20541;-73
2022/07/10 03:33:19;;;;;;;7.75;3.95;;;;;;;;;;5024403;28;20984;-74
2022/07/10 03:35:46;;;;;;;4.85;3.25;;;;;;;;;;5021334;28;20030;-74
2022/07/10 03:38:12;;;;;;;5.43;3.63;;;;;;;;;;5026242;28;20140;-73
2022/07/10 03:40:38;;;;;;;4.72;3.47;;;;;;;;;;5026575;28;21480;-74
2022/07/10 03:43:04;;;;;;;4.30;3.80;;;;;;;;;;5027434;28;20033;-74
2022/07/10 03:45:30;;;;;;;4.70;3.65;;;;;;;;;;5020153;28;20713;-73
2022/07/10 03:47:56;;;;;;;5.85;3.50;;;;;;;;;;5019913;28;20147;-74
2022/07/10 03:50:22;;;;;;;4.50;3.70;;;;;;;;;;5027673;28;20148;-74
2022/07/10 03:52:48;;;;;;;4.95;3.40;;;;;;;;;;5022085;28;20501;-74
2022/07/10 03:55:14;;;;;;;4.45;3.30;;;;;;;;;;5011768;28;20040;-73
2022/07/10 03:58:02;;;;;;;4.20;3.38;;;;;;;;;;5024858;28;20463;-74
2022/07/10 04:00:28;;;;;;;4.18;3.17;;;;;;;;;;5023283;28;20117;-73
2022/07/10 04:03:04;;;;;;;3.58;3.20;;;;;;;;;;5019053;28;20585;-74
2022/07/10 04:05:30;;;;;;;4.22;3.40;;;;;;;;;;5021754;28;20036;-74
2022/07/10 04:07:57;;;;;;;5.03;3.50;;;;;;;;;;5023906;28;20036;-74
2022/07/10 04:10:23;;;;;;;5.43;4.18;;;;;;;;;;5027072;28;20453;-73
2022/07/10 04:12:50;;;;;;;4.80;3.50;;;;;;;;;;5026632;28;20041;-74
2022/07/10 04:15:16;;;;;;;5.05;3.50;;;;;;;;;;5028982;28;20025;-73
2022/07/10 04:17:43;;;;;;;5.97;3.63;;;;;;;;;;5032761;28;20036;-73
2022/07/10 04:20:09;;;;;;;4.53;3.72;;;;;;;;;;5026148;28;20422;-74
2022/07/10 04:22:36;;;;;;;4.30;3.83;;;;;;;;;;5030769;28;20504;-74
2022/07/10 04:25:02;;;;;;;4.57;3.90;;;;;;;;;;5024759;28;20029;-74
2022/07/10 04:27:28;;;;;;;4.22;3.45;;;;;;;;;;5027595;28;20152;-73
2022/07/10 04:29:54;;;;;;;4.82;3.65;;;;;;;;;;5026802;28;20084;-73
2022/07/10 04:32:20;;;;;;;3.85;3.33;;;;;;;;;;5026445;28;20657;-73
2022/07/10 04:34:46;;;;;;;5.20;3.65;;;;;;;;;;5025642;28;20472;-73
2022/07/10 04:37:12;;;;;;;4.55;3.60;;;;;;;;;;5027346;28;20036;-74
2022/07/10 04:39:39;;;;;;;4.63;3.50;;;;;;;;;;5026697;28;20513;-73
2022/07/10 04:42:06;;;;;;;6.10;3.70;;;;;;;;;;5021737;28;20107;-73
2022/07/10 04:44:32;;;;;;;4.82;3.33;;;;;;;;;;5012803;28;20041;-73
2022/07/10 04:46:58;;;;;;;4.43;3.42;;;;;;;;;;5020588;28;20313;-74
2022/07/10 04:49:24;;;;;;;5.38;3.67;;;;;;;;;;5022719;28;20025;-74
2022/07/10 04:51:51;;;;;;;5.20;3.45;;;;;;;;;;5017054;28;20025;-73
2022/07/10 04:54:17;;;;;;;5.43;3.70;;;;;;;;;;5021667;28;20030;-74
2022/07/10 04:56:43;;;;;;;4.15;3.20;;;;;;;;;;5024900;28;20724;-74
2022/07/10 04:59:10;;;;;;;4.35;3.70;;;;;;;;;;5036862;28;20076;-74
2022/07/10 05:01:37;;;;;;;5.53;4.15;;;;;;;;;;5021465;28;20041;-74
2022/07/10 05:04:03;;;;;;;4.70;3.60;;;;;;;;;;5023229;28;20036;-73
2022/07/10 05:06:29;;;;;;;6.35;3.45;;;;;;;;;;5030849;28;20021;-74
2022/07/10 05:08:56;;;;;;;4.53;3.63;;;;;;;;;;5018463;28;20018;-74
2022/07/10 05:11:22;;;;;;;4.13;3.72;;;;;;;;;;5033228;28;20047;-73
2022/07/10 05:13:48;;;;;;;3.70;3.30;;;;;;;;;;5024504;28;20082;-74
2022/07/10 05:16:17;;;;;;;5.35;3.28;;;;;;;;;;5036859;28;20542;-74
2022/07/10 05:18:44;;;;;;;4.47;3.65;;;;;;;;;;5028788;28;20040;-74
2022/07/10 05:21:10;;;;;;;7.00;4.28;;;;;;;;;;5027269;28;20383;-74
2022/07/10 05:23:37;;;;;;;7.00;4.65;;;;;;;;;;5017065;28;20017;-73
2022/07/10 05:26:03;;;;;;;14.68;4.35;;;;;;;;;;5019782;28;20036;-74
2022/07/10 05:28:29;;;;;;;6.25;4.57;;;;;;;;;;5027776;28;20021;-74
2022/07/10 05:30:55;;;;;;;5.00;3.92;;;;;;;;;;5026417;28;20466;-74
2022/07/10 05:33:22;;;;;;;4.93;4.18;;;;;;;;;;5025720;28;20044;-74
2022/07/10 05:35:48;;;;;;;4.97;3.92;;;;;;;;;;5028844;28;20108;-74
2022/07/10 05:38:14;;;;;;;6.63;3.88;;;;;;;;;;5025326;28;20029;-74
2022/07/10 05:40:40;;;;;;;5.13;4.25;;;;;;;;;;5025400;28;20022;-74
2022/07/10 05:43:06;;;;;;;7.45;4.63;;;;;;;;;;5019621;28;20022;-75
2022/07/10 05:45:33;;;;;;;5.25;4.03;;;;;;;;;;5026721;28;20075;-74
2022/07/10 05:47:59;;;;;;;5.05;4.15;;;;;;;;;;5027183;28;20034;-74
2022/07/10 05:50:25;;;;;;;5.00;3.88;;;;;;;;;;5019584;28;20032;-75
2022/07/10 05:52:51;;;;;;;6.25;4.72;;;;;;;;;;5028814;28;20425;-75
2022/07/10 05:55:17;;;;;;;6.15;4.45;;;;;;;;;;5029069;28;20037;-74
2022/07/10 05:57:43;;;;;;;6.93;4.03;;;;;;;;;;5028695;28;20033;-75
2022/07/10 06:00:09;;;;;;;6.82;4.68;;;;;;;;;;5025190;28;20034;-72
2022/07/10 06:02:35;;;;;;;7.07;4.93;;;;;;;;;;5020111;28;20136;-74
2022/07/10 06:05:01;;;;;;;9.40;4.75;;;;;;;;;;5023894;28;20026;-74
2022/07/10 06:07:29;;;;;;;7.18;5.13;;;;;;;;;;5023305;28;20029;-73
2022/07/10 06:09:55;;;;;;;6.35;4.72;;;;;;;;;;5017038;28;20423;-74
2022/07/10 06:12:21;;;;;;;6.60;4.70;;;;;;;;;;5022647;28;20025;-74
2022/07/10 06:14:47;;;;;;;6.50;4.97;;;;;;;;;;5027832;28;20036;-73
2022/07/10 06:17:13;;;;;;;6.18;5.13;;;;;;;;;;5021724;28;20493;-75
2022/07/10 06:19:40;;;;;;;7.50;5.20;;;;;;;;;;5029546;28;20032;-75
2022/07/10 06:24:50;;;;;;;6.63;4.50;;;;;;;;;;5010579;28;20115;-74
2022/07/10 06:27:17;;;;;;;9.00;5.30;;;;;;;;;;5018582;28;20033;-74
2022/07/10 06:29:43;;;;;;;5.82;4.38;;;;;;;;;;5030425;28;20018;-73
2022/07/10 06:32:09;;;;;;;7.45;4.97;;;;;;;;;;5026157;28;20025;-74
2022/07/10 06:34:35;;;;;;;7.88;5.15;;;;;;;;;;5027323;28;20034;-74
2022/07/10 06:37:01;;;;;;;9.60;5.53;;;;;;;;;;5029302;28;20175;-73
2022/07/10 06:39:29;;;;;;;7.47;5.47;;;;;;;;;;5034983;28;20490;-74
2022/07/10 06:41:55;;;;;;;8.82;4.82;;;;;;;;;;5029101;28;20036;-74
2022/07/10 06:44:22;;;;;;;6.80;4.65;;;;;;;;;;5030042;28;20026;-75
2022/07/10 06:47:55;;;;;;;7.45;4.78;;;;;;;;;;5025983;28;20052;-74
2022/07/10 06:49:34;;;;;;;5.82;4.32;;;;;;;;;;5027258;28;20173;-73
2022/07/10 06:52:00;;;;;;;8.43;4.45;;;;;;;;;;5027129;28;20037;-74
2022/07/10 06:54:26;;;;;;;5.65;4.20;;;;;;;;;;5023571;28;20053;-75
2022/07/10 06:56:52;;;;;;;7.15;4.07;;;;;;;;;;5027416;28;20032;-74
2022/07/10 06:59:18;;;;;;;6.90;4.47;;;;;;;;;;5024485;28;20021;-74
2022/07/10 07:01:44;;;;;;;6.55;5.03;;;;;;;;;;5026060;28;20046;-75
2022/07/10 07:04:11;;;;;;;5.10;4.22;;;;;;;;;;5030442;28;20475;-74
2022/07/10 07:06:37;;;;;;;5.95;4.00;;;;;;;;;;5026538;28;20030;-75
2022/07/10 07:09:03;;;;;;;4.75;4.05;;;;;;;;;;5029323;28;20026;-74
2022/07/10 07:11:29;;;;;;;5.50;4.38;;;;;;;;;;5026298;28;20096;-74
2022/07/10 07:13:55;;;;;;;5.57;4.10;;;;;;;;;;5015981;28;20022;-72
2022/07/10 07:16:27;;;;;;;5.10;4.10;;;;;;;;;;5037283;28;20112;-74
2022/07/10 07:18:55;;;;;;;5.22;4.43;;;;;;;;;;5025573;28;20472;-74
2022/07/10 07:24:07;;;;;;;5.47;4.13;;;;;;;;;;5019103;28;20033;-76
2022/07/10 07:26:33;;;;;;;6.70;3.97;;;;;;;;;;5026095;28;20026;-74
2022/07/10 07:28:59;;;;;;;6.40;4.28;;;;;;;;;;5031604;28;20455;-74
2022/07/10 07:31:25;;;;;;;4.70;3.45;;;;;;;;;;5032041;28;20025;-73
2022/07/10 07:33:51;;;;;;;4.15;3.53;;;;;;;;;;5027920;28;20601;-73
2022/07/10 07:36:18;;;;;;;4.25;3.45;;;;;;;;;;5030992;28;20108;-74
2022/07/10 07:38:44;;;;;;;4.15;3.42;;;;;;;;;;5015247;28;20048;-75
2022/07/10 07:41:10;;;;;;;4.68;3.55;;;;;;;;;;5030958;28;20025;-74
2022/07/10 07:43:36;;;;;;;3.55;2.95;;;;;;;;;;5018309;28;20156;-73
2022/07/10 07:46:02;;;;;;;5.53;3.03;;;;;;;;;;5026602;28;20026;-74
2022/07/10 07:48:28;;;;;;;4.28;3.33;;;;;;;;;;5013667;28;20632;-74
2022/07/10 07:50:55;;;;;;;4.25;2.92;;;;;;;;;;5020775;28;20328;-74
2022/07/10 07:53:21;;;;;;;3.67;3.17;;;;;;;;;;5028062;28;20033;-73
2022/07/10 07:55:47;;;;;;;2.40;2.20;;;;;;;;;;5042511;28;20034;-74
2022/07/10 07:58:13;;;;;;;2.80;2.22;;;;;;;;;;5029623;28;20044;-73
2022/07/10 08:00:39;;;;;;;2.97;2.00;;;;;;;;;;5024116;28;20025;-74
2022/07/10 08:03:05;;;;;;;3.08;2.30;;;;;;;;;;5027495;28;20080;-74
2022/07/10 08:05:32;;;;;;;2.40;2.20;;;;;;;;;;5023725;28;20033;-74
2022/07/10 08:08:04;;;;;;;2.70;2.13;;;;;;;;;;5029130;28;20033;-74
2022/07/10 08:10:30;;;;;;;3.70;2.20;;;;;;;;;;5024852;28;20033;-75
2022/07/10 08:12:56;;;;;;;3.17;2.20;;;;;;;;;;5015409;28;20029;-75
2022/07/10 08:15:23;;;;;;;2.28;2.08;;;;;;;;;;5021050;28;20104;-73
2022/07/10 08:17:50;;;;;;;2.65;2.13;;;;;;;;;;5017671;28;20037;-73
2022/07/10 08:20:16;;;;;;;2.20;2.00;;;;;;;;;;5020820;28;20502;-73
2022/07/10 08:22:43;;;;;;;2.90;1.98;;;;;;;;;;5018508;28;20060;-74
2022/07/10 08:25:09;;;;;;;2.17;1.98;;;;;;;;;;5024169;28;20025;-74
2022/07/10 08:27:35;;;;;;;2.17;1.98;;;;;;;;;;5018710;28;20026;-74
2022/07/10 08:30:02;;;;;;;2.28;2.08;;;;;;;;;;5014459;28;20155;-73
2022/07/10 08:32:30;;;;;;;2.75;2.00;;;;;;;;;;5024087;28;20295;-74
2022/07/10 08:34:56;;;;;;;2.42;2.17;;;;;;;;;;5026378;28;20108;-74
2022/07/10 08:37:22;;;;;;;3.92;2.15;;;;;;;;;;5025218;28;20072;-72
2022/07/10 08:39:48;;;;;;;2.75;2.35;;;;;;;;;;5006881;28;20449;-75
2022/07/10 08:42:16;;;;;;;3.42;2.28;;;;;;;;;;5018071;28;20031;-75
2022/07/10 08:44:42;;;;;;;2.20;1.98;;;;;;;;;;5021924;28;20029;-74
2022/07/10 08:47:11;;;;;;;2.33;1.83;;;;;;;;;;5024060;28;20390;-74
2022/07/10 08:49:37;;;;;;;2.30;2.00;;;;;;;;;;5018977;28;20116;-74
2022/07/10 08:52:03;;;;;;;2.30;2.10;;;;;;;;;;5021295;28;20041;-75
2022/07/10 08:54:30;;;;;;;2.58;2.30;;;;;;;;;;5022572;28;20527;-74
2022/07/10 08:57:00;;;;;;;2.88;2.58;;;;;;;;;;5023554;28;20144;-74
2022/07/10 08:59:27;;;;;;;2.72;2.30;;;;;;;;;;5022528;28;20105;-73
2022/07/10 09:01:53;;;;;;;2.40;2.20;;;;;;;;;;5022928;28;20128;-74
2022/07/10 09:04:24;;;;;;;2.88;2.33;;;;;;;;;;5024475;28;20452;-74
2022/07/10 09:06:51;;;;;;;2.70;2.40;;;;;;;;;;5023717;28;20383;-75
2022/07/10 09:09:18;;;;;;;2.83;2.28;;;;;;;;;;5024462;28;20026;-72
2022/07/10 09:11:44;;;;;;;3.08;2.30;;;;;;;;;;5026095;28;20049;-73
2022/07/10 09:14:13;;;;;;;4.40;2.55;;;;;;;;;;5023581;28;20079;-73
2022/07/10 09:16:41;;;;;;;2.40;2.20;;;;;;;;;;5024116;28;20068;-74
2022/07/10 09:19:20;;;;;;;2.85;2.10;;;;;;;;;;5024202;28;20044;-72
2022/07/10 09:21:46;;;;;;;2.60;2.13;;;;;;;;;;5021105;28;20040;-73
2022/07/10 09:24:13;;;;;;;5.47;2.53;;;;;;;;;;5021142;28;20052;-73
2022/07/10 09:26:39;;;;;;;2.75;2.10;;;;;;;;;;5020265;28;20036;-74
2022/07/10 09:29:07;;;;;;;2.45;2.25;;;;;;;;;;5024238;28;20027;-75
2022/07/10 09:31:49;;;;;;;2.40;2.20;;;;;;;;;;5022843;28;20120;-75
2022/07/10 09:34:15;;;;;;;2.40;2.20;;;;;;;;;;5022584;28;20025;-75
2022/07/10 09:36:41;;;;;;;2.10;1.90;;;;;;;;;;5023251;28;20467;-75
2022/07/10 09:39:07;;;;;;;2.50;2.30;;;;;;;;;;5021516;28;20033;-73
2022/07/10 09:41:34;;;;;;;2.38;2.17;;;;;;;;;;5020555;28;20083;-75
2022/07/10 09:44:04;;;;;;;2.90;2.40;;;;;;;;;;5021377;28;20021;-73
2022/07/10 09:46:35;;;;;;;2.55;2.10;;;;;;;;;;5022444;28;20025;-74
2022/07/10 09:49:05;;;;;;;2.35;2.15;;;;;;;;;;5022145;28;20022;-74
2022/07/10 09:51:32;;;;;;;2.75;2.50;;;;;;;;;;5024193;28;20600;-73
2022/07/10 09:54:01;;;;;;;2.60;2.20;;;;;;;;;;5023151;28;20168;-75
2022/07/10 09:56:27;;;;;;;2.80;2.60;;;;;;;;;;5024733;28;20483;-76
2022/07/10 09:58:55;;;;;;;3.60;2.35;;;;;;;;;;5024838;28;20125;-75
2022/07/10 10:01:23;;;;;;;3.10;2.80;;;;;;;;;;5021250;28;20061;-75
2022/07/10 10:03:49;;;;;;;5.70;2.60;;;;;;;;;;5022877;28;20113;-75
2022/07/10 10:06:16;;;;;;;2.83;2.20;;;;;;;;;;5022704;28;20071;-75
2022/07/10 10:08:49;;;;;;;3.15;2.30;;;;;;;;;;5023861;28;20411;-75
2022/07/10 10:11:17;;;;;;;2.58;2.20;;;;;;;;;;5016766;28;20349;-75
2022/07/10 10:13:44;;;;;;;2.78;2.58;;;;;;;;;;5016048;28;20053;-76
2022/07/10 10:16:10;;;;;;;3.30;1.90;;;;;;;;;;5028439;28;20025;-75
2022/07/10 10:20:36;;;;;;;2.60;2.17;;;;;;;;;;5025879;28;20021;-75
2022/07/10 10:21:23;;;;;;;2.53;2.33;;;;;;;;;;5027610;28;20026;-75
2022/07/10 10:23:49;;;;;;;3.13;2.15;;;;;;;;;;5024412;28;20034;-75
2022/07/10 10:26:16;;;;;;;2.58;2.38;;;;;;;;;;5022067;28;20037;-75
2022/07/10 10:28:42;;;;;;;2.80;2.20;;;;;;;;;;5024067;28;20025;-74
2022/07/10 10:31:09;;;;;;;2.50;2.30;;;;;;;;;;5024319;28;20405;-74
2022/07/10 10:33:35;;;;;;;3.47;2.30;;;;;;;;;;5024866;28;20025;-74
2022/07/10 10:36:08;;;;;;;4.10;2.53;;;;;;;;;;5026242;28;20030;-74
2022/07/10 10:38:55;;;;;;;2.60;2.40;;;;;;;;;;5024715;28;20175;-74
2022/07/10 10:41:24;;;;;;;2.60;2.40;;;;;;;;;;5027482;28;20025;-74
2022/07/10 10:44:10;;;;;;;3.22;2.58;;;;;;;;;;5023414;28;20159;-75
2022/07/10 10:46:53;;;;;;;3.97;2.55;;;;;;;;;;5024147;28;20025;-76
2022/07/10 10:49:20;;;;;;;2.80;2.30;;;;;;;;;;5021553;28;20028;-75
2022/07/10 10:52:03;;;;;;;2.67;2.30;;;;;;;;;;5025951;28;20363;-75
2022/07/10 10:54:30;;;;;;;2.45;2.20;;;;;;;;;;5027260;28;20026;-74
2022/07/10 10:57:15;;;;;;;3.00;2.70;;;;;;;;;;5026681;28;20052;-75
2022/07/10 10:59:51;;;;;;;4.75;2.50;;;;;;;;;;5024615;28;20368;-75
2022/07/10 11:02:27;;;;;;;2.50;2.30;;;;;;;;;;5024010;28;20519;-74
2022/07/10 11:05:18;;;;;;;2.80;2.55;;;;;;;;;;5026297;28;20021;-75
2022/07/10 11:08:00;;;;;;;3.58;2.42;;;;;;;;;;5025472;28;20021;-75
2022/07/10 11:10:30;;;;;;;3.00;2.47;;;;;;;;;;5024344;28;20416;-76
2022/07/10 11:12:58;;;;;;;2.72;2.30;;;;;;;;;;5025483;28;20030;-74
2022/07/10 11:15:25;;;;;;;2.60;2.30;;;;;;;;;;5023772;28;20030;-75
2022/07/10 11:17:51;;;;;;;2.40;2.20;;;;;;;;;;5019733;28;20029;-76
2022/07/10 11:20:18;;;;;;;2.65;2.30;;;;;;;;;;5023771;28;20064;-75
2022/07/10 11:22:48;;;;;;;3.60;2.47;;;;;;;;;;5026639;28;20494;-75
2022/07/10 11:25:24;;;;;;;2.47;2.28;;;;;;;;;;5027420;28;20032;-74
2022/07/10 11:27:50;;;;;;;3.40;3.10;;;;;;;;;;5027738;28;20025;-75
2022/07/10 11:30:16;;;;;;;2.58;2.38;;;;;;;;;;5026568;28;20032;-76
2022/07/10 11:32:42;;;;;;;2.88;2.47;;;;;;;;;;5019679;28;20107;-72
2022/07/10 11:35:14;;;;;;;2.90;2.60;;;;;;;;;;5023397;28;20464;-75
2022/07/10 11:37:51;;;;;;;2.60;2.40;;;;;;;;;;5021636;28;20032;-75
2022/07/10 11:40:19;;;;;;;2.90;2.58;;;;;;;;;;5023605;28;20022;-74
2022/07/10 11:43:06;;;;;;;3.85;2.58;;;;;;;;;;5025535;28;20104;-75
2022/07/10 11:45:36;;;;;;;3.35;2.40;;;;;;;;;;5024930;28;20583;-75
2022/07/10 11:48:04;;;;;;;2.80;2.60;;;;;;;;;;5026655;28;20036;-75
2022/07/10 11:50:37;;;;;;;2.78;2.47;;;;;;;;;;5025669;28;20101;-75
2022/07/10 11:53:04;;;;;;;2.80;2.60;;;;;;;;;;5026501;28;20047;-75
2022/07/10 11:55:36;;;;;;;2.90;2.53;;;;;;;;;;5025910;28;20021;-75
2022/07/10 11:58:13;;;;;;;2.90;2.70;;;;;;;;;;5025423;28;20375;-75
2022/07/10 12:00:39;;;;;;;3.65;2.50;;;;;;;;;;5025794;28;20033;-77
2022/07/10 12:03:19;;;;;;;2.75;2.50;;;;;;;;;;5022113;28;20110;-74
2022/07/10 12:05:52;;;;;;;2.55;2.35;;;;;;;;;;5024114;28;20021;-74
2022/07/10 12:08:19;;;;;;;3.15;2.40;;;;;;;;;;5027317;28;20033;-74
2022/07/10 12:10:45;;;;;;;2.78;2.50;;;;;;;;;;5024976;28;20104;-74
2022/07/10 12:13:14;;;;;;;2.90;2.55;;;;;;;;;;5017958;28;20037;-75
2022/07/10 12:15:44;;;;;;;2.95;2.53;;;;;;;;;;5023557;28;20029;-74
2022/07/10 12:18:17;;;;;;;3.83;2.30;;;;;;;;;;5024079;28;20037;-73
2022/07/10 12:20:47;;;;;;;2.78;2.30;;;;;;;;;;5025167;28;20033;-73
2022/07/10 12:23:17;;;;;;;3.60;2.53;;;;;;;;;;5025173;28;20033;-74
2022/07/10 12:25:44;;;;;;;2.85;2.50;;;;;;;;;;5020918;28;20061;-74
2022/07/10 12:28:11;;;;;;;2.60;2.30;;;;;;;;;;5026464;28;20021;-76
2022/07/10 12:30:39;;;;;;;2.67;2.47;;;;;;;;;;5026112;28;20429;-74
2022/07/10 12:33:18;;;;;;;2.80;2.50;;;;;;;;;;5026440;28;20029;-74
2022/07/10 12:35:51;;;;;;;2.47;2.28;;;;;;;;;;5021917;28;20044;-74
2022/07/10 12:38:25;;;;;;;3.45;2.60;;;;;;;;;;5024470;28;20025;-74
2022/07/10 12:40:51;;;;;;;2.75;2.50;;;;;;;;;;5027367;28;20032;-74
2022/07/10 12:43:29;;;;;;;5.43;2.42;;;;;;;;;;5025638;28;20513;-73
2022/07/10 12:46:15;;;;;;;3.50;2.70;;;;;;;;;;5024005;28;20022;-74
2022/07/10 12:48:45;;;;;;;3.25;2.80;;;;;;;;;;5024922;28;20034;-74
2022/07/10 12:51:25;;;;;;;2.88;2.63;;;;;;;;;;5028368;28;20064;-74
2022/07/10 12:53:51;;;;;;;2.70;2.50;;;;;;;;;;5024847;28;20025;-74
2022/07/10 12:56:27;;;;;;;2.53;2.33;;;;;;;;;;5018372;28;20033;-74
2022/07/10 12:58:53;;;;;;;3.22;2.67;;;;;;;;;;5021529;28;20132;-74
2022/07/10 13:01:19;;;;;;;2.80;2.60;;;;;;;;;;5024200;28;20060;-74
2022/07/10 13:03:45;;;;;;;3.08;2.78;;;;;;;;;;5022082;28;20029;-74
2022/07/10 13:06:28;;;;;;;2.72;2.50;;;;;;;;;;5023772;28;20029;-74
2022/07/10 13:08:54;;;;;;;4.43;2.85;;;;;;;;;;5024426;28;20041;-72
2022/07/10 13:11:21;;;;;;;2.80;2.60;;;;;;;;;;5022617;28;20108;-72
2022/07/10 13:13:47;;;;;;;4.15;2.50;;;;;;;;;;5021336;28;20341;-74
2022/07/10 13:16:13;;;;;;;2.33;2.10;;;;;;;;;;5022766;28;20271;-73
2022/07/10 13:18:44;;;;;;;3.25;2.65;;;;;;;;;;5023352;28;20109;-75
2022/07/10 13:21:13;;;;;;;3.40;2.65;;;;;;;;;;5021833;28;20025;-73
2022/07/10 13:23:42;;;;;;;2.72;2.53;;;;;;;;;;5024673;28;20018;-74
2022/07/10 13:26:12;;;;;;;3.30;2.25;;;;;;;;;;5021548;28;20021;-73
2022/07/10 13:28:39;;;;;;;2.78;2.50;;;;;;;;;;5028067;28;20104;-77
2022/07/10 13:31:06;;;;;;;2.50;2.30;;;;;;;;;;5023200;28;20029;-74
2022/07/10 13:33:32;;;;;;;3.30;2.50;;;;;;;;;;5022905;28;21041;-74
2022/07/10 13:36:00;;;;;;;2.65;2.33;;;;;;;;;;5022585;28;20030;-75
2022/07/10 13:38:26;;;;;;;2.80;2.60;;;;;;;;;;5022184;28;20778;-74
2022/07/10 13:40:52;;;;;;;2.70;2.35;;;;;;;;;;5023055;28;20115;-74
2022/07/10 13:43:20;;;;;;;3.30;2.53;;;;;;;;;;5021541;28;20080;-73
2022/07/10 13:45:47;;;;;;;3.20;2.25;;;;;;;;;;5022417;28;20060;-74
2022/07/10 13:48:13;;;;;;;3.47;2.53;;;;;;;;;;5020248;28;20022;-77
2022/07/10 13:50:43;;;;;;;2.40;2.20;;;;;;;;;;5026232;28;20117;-74
2022/07/10 13:53:10;;;;;;;2.45;2.20;;;;;;;;;;5025446;28;20449;-75
2022/07/10 13:55:36;;;;;;;2.50;2.30;;;;;;;;;;5027394;28;20021;-74
2022/07/10 13:58:02;;;;;;;3.05;2.50;;;;;;;;;;5027524;28;20518;-75
2022/07/10 14:00:28;;;;;;;2.30;2.10;;;;;;;;;;5027236;28;20148;-75
2022/07/10 14:02:56;;;;;;;2.38;2.10;;;;;;;;;;5026729;28;20052;-76
2022/07/10 14:05:22;;;;;;;2.55;2.15;;;;;;;;;;5026160;28;20196;-74
2022/07/10 14:07:49;;;;;;;2.55;2.33;;;;;;;;;;5023390;28;20029;-76
2022/07/10 14:10:15;;;;;;;2.30;2.10;;;;;;;;;;5025628;28;20061;-77
2022/07/10 14:12:41;;;;;;;3.22;2.30;;;;;;;;;;5024198;28;20033;-75
2022/07/10 14:15:11;;;;;;;2.35;2.15;;;;;;;;;;5024711;28;20052;-75
2022/07/10 14:17:37;;;;;;;2.60;2.40;;;;;;;;;;5019427;28;20038;-75
2022/07/10 14:20:03;;;;;;;4.68;2.40;;;;;;;;;;5021665;28;20026;-75
2022/07/10 14:22:30;;;;;;;2.38;2.17;;;;;;;;;;5023083;28;20052;-75
2022/07/10 14:25:00;;;;;;;2.58;2.17;;;;;;;;;;5023701;28;20566;-74
2022/07/10 14:27:27;;;;;;;2.72;2.20;;;;;;;;;;5020925;28;20033;-75
2022/07/10 14:29:53;;;;;;;3.42;2.35;;;;;;;;;;5025189;28;20053;-74
2022/07/10 14:32:20;;;;;;;2.22;2.03;;;;;;;;;;5019988;28;20040;-75
2022/07/10 14:34:46;;;;;;;2.80;2.30;;;;;;;;;;5024696;28;20096;-75
2022/07/10 14:37:12;;;;;;;2.35;2.13;;;;;;;;;;5022707;28;20723;-75
2022/07/10 14:39:38;;;;;;;2.25;2.05;;;;;;;;;;5022400;28;20056;-75
2022/07/10 14:42:09;;;;;;;2.47;2.28;;;;;;;;;;5024637;28;20037;-75
2022/07/10 14:44:35;;;;;;;2.50;2.20;;;;;;;;;;5021970;28;20029;-75
2022/07/10 14:47:01;;;;;;;3.88;2.70;;;;;;;;;;5023074;28;20041;-75
2022/07/10 14:49:27;;;;;;;4.05;2.42;;;;;;;;;;5026690;28;20025;-75
2022/07/10 14:51:54;;;;;;;3.10;2.38;;;;;;;;;;5023315;28;20516;-74
2022/07/10 14:54:21;;;;;;;2.50;2.25;;;;;;;;;;5026006;28;20434;-75